createdAt,value
2023-03-19T00:00:43.716Z,47.86
2023-03-19T00:03:10.797Z,48.32
2023-03-19T00:05:37.974Z,48.46
2023-03-19T00:08:06.114Z,49.16
2023-03-19T00:10:33.092Z,48.61
2023-03-19T00:13:00.023Z,48.87
2023-03-19T00:15:26.903Z,48.44
2023-03-19T00:17:54.611Z,49.94
2023-03-19T00:20:22.482Z,50.10
2023-03-19T00:22:49.439Z,49.52
2023-03-19T00:25:16.460Z,48.77
2023-03-19T00:27:44.812Z,49.64
2023-03-19T00:30:12.275Z,49.07
2023-03-19T00:32:39.757Z,51.21
2023-03-19T00:35:07.333Z,52.00
2023-03-19T00:37:36.021Z,52.29
2023-03-19T00:40:04.651Z,52.66
2023-03-19T00:42:32.199Z,52.63
2023-03-19T00:44:59.357Z,52.12
2023-03-19T00:47:27.293Z,52.88
2023-03-19T00:49:54.348Z,51.95
2023-03-19T00:52:21.494Z,51.69
2023-03-19T00:54:48.429Z,52.59
2023-03-19T00:57:15.352Z,52.73
2023-03-19T00:59:42.274Z,52.48
2023-03-19T01:02:09.238Z,51.85
2023-03-19T01:04:36.214Z,51.68
2023-03-19T01:07:03.470Z,52.09
2023-03-19T01:09:47.910Z,52.37
2023-03-19T01:12:35.060Z,52.67
2023-03-19T01:18:02.695Z,53.45
2023-03-19T01:20:52.785Z,52.21
2023-03-19T01:23:38.346Z,51.52
2023-03-19T01:26:05.572Z,51.56
2023-03-19T01:28:32.508Z,50.91
2023-03-19T01:31:02.157Z,52.25
2023-03-19T01:33:29.333Z,52.54
2023-03-19T01:35:58.255Z,52.18
2023-03-19T01:38:25.764Z,53.39
2023-03-19T01:40:52.761Z,54.60
2023-03-19T01:43:23.051Z,56.32
2023-03-19T01:46:16.666Z,58.60
2023-03-19T01:48:53.603Z,58.46
2023-03-19T01:51:26.660Z,59.40
2023-03-19T01:53:58.260Z,58.91
2023-03-19T01:56:35.718Z,59.74
2023-03-19T01:59:17.649Z,63.15
2023-03-19T02:01:52.556Z,62.13
2023-03-19T02:04:20.065Z,63.58
2023-03-19T02:06:47.569Z,64.74
2023-03-19T02:09:15.845Z,65.97
2023-03-19T02:12:04.371Z,67.37
2023-03-19T02:14:46.713Z,67.13
2023-03-19T02:17:32.104Z,67.26
2023-03-19T02:20:36.720Z,68.57
2023-03-19T02:23:35.935Z,68.59
2023-03-19T02:26:37.120Z,69.06
2023-03-19T02:29:04.471Z,67.67
2023-03-19T02:31:31.625Z,68.17
2023-03-19T02:34:02.344Z,70.41
2023-03-19T02:36:41.792Z,71.05
2023-03-19T02:39:18.190Z,71.68
2023-03-19T02:41:47.310Z,74.50
2023-03-19T02:44:14.229Z,73.64
2023-03-19T02:46:41.391Z,73.54
2023-03-19T02:49:08.399Z,72.23
2023-03-19T02:51:35.980Z,74.19
2023-03-19T02:54:02.858Z,75.48
2023-03-19T02:56:30.137Z,75.21
2023-03-19T02:58:57.171Z,73.45
2023-03-19T03:01:24.852Z,72.19
2023-03-19T03:03:51.921Z,73.40
2023-03-19T03:06:21.912Z,74.96
2023-03-19T03:08:48.817Z,76.41
2023-03-19T03:11:15.840Z,74.48
2023-03-19T03:13:42.755Z,73.80
2023-03-19T03:16:09.794Z,74.36
2023-03-19T03:18:36.971Z,77.96
2023-03-19T03:21:04.023Z,79.39
2023-03-19T03:23:30.918Z,77.13
2023-03-19T03:25:57.893Z,76.67
2023-03-19T03:28:25.069Z,76.91
2023-03-19T03:30:52.064Z,78.02
2023-03-19T03:33:19.278Z,79.78
2023-03-19T03:35:46.664Z,76.21
2023-03-19T03:38:13.665Z,76.83
2023-03-19T03:40:42.050Z,76.34
2023-03-19T03:43:10.274Z,77.38
2023-03-19T03:45:37.568Z,79.27
2023-03-19T03:48:04.784Z,80.03
2023-03-19T03:50:31.920Z,81.34
2023-03-19T03:52:58.880Z,79.70
2023-03-19T03:55:25.819Z,81.08
2023-03-19T03:57:52.826Z,81.24
2023-03-19T04:00:20.156Z,79.87
2023-03-19T04:02:47.389Z,79.80
2023-03-19T04:05:14.326Z,80.88
2023-03-19T04:07:41.538Z,80.94
2023-03-19T04:10:10.766Z,82.91
2023-03-19T04:12:41.656Z,81.41
2023-03-19T04:15:11.118Z,81.14
2023-03-19T04:17:38.773Z,82.10
2023-03-19T04:20:06.840Z,84.37
2023-03-19T04:22:34.239Z,83.87
2023-03-19T04:25:01.321Z,83.11
2023-03-19T04:27:28.321Z,84.03
2023-03-19T04:29:55.693Z,82.61
2023-03-19T04:32:22.647Z,82.81
2023-03-19T04:34:49.568Z,82.73
2023-03-19T04:37:17.182Z,82.19
2023-03-19T04:39:44.723Z,83.20
2023-03-19T04:42:11.792Z,81.92
2023-03-19T04:44:38.789Z,83.52
2023-03-19T04:47:05.849Z,83.90
2023-03-19T04:49:32.775Z,84.29
2023-03-19T04:51:59.820Z,84.33
2023-03-19T04:54:27.360Z,86.68
2023-03-19T04:56:54.457Z,85.33
2023-03-19T04:59:23.172Z,84.87
2023-03-19T05:01:50.448Z,85.09
2023-03-19T05:04:18.037Z,85.23
2023-03-19T05:06:45.587Z,84.98
2023-03-19T05:09:12.487Z,85.02
2023-03-19T05:11:39.584Z,83.77
2023-03-19T05:14:06.613Z,86.01
2023-03-19T05:16:34.889Z,85.50
2023-03-19T05:19:01.994Z,85.35
2023-03-19T05:21:29.005Z,85.37
2023-03-19T05:23:57.496Z,84.28
2023-03-19T05:26:24.503Z,84.15
2023-03-19T05:28:51.553Z,84.45
2023-03-19T05:31:18.717Z,84.05
2023-03-19T05:33:46.132Z,82.94
2023-03-19T05:36:13.348Z,82.76
2023-03-19T05:38:40.771Z,80.83
2023-03-19T05:41:08.715Z,81.47
2023-03-19T05:43:35.730Z,81.54
2023-03-19T05:46:03.367Z,81.70
2023-03-19T05:48:30.402Z,80.66
2023-03-19T05:50:57.364Z,80.37
2023-03-19T05:53:24.316Z,81.11
2023-03-19T05:55:51.223Z,80.32
2023-03-19T05:58:18.142Z,81.10
2023-03-19T06:00:45.134Z,81.05
2023-03-19T06:03:12.416Z,80.78
2023-03-19T06:05:39.448Z,81.02
2023-03-19T06:08:07.166Z,81.04
2023-03-19T06:10:37.401Z,79.76
2023-03-19T06:13:05.703Z,79.40
2023-03-19T06:15:32.995Z,78.12
2023-03-19T06:18:00.131Z,77.78
2023-03-19T06:20:27.629Z,76.38
2023-03-19T06:22:55.000Z,75.30
2023-03-19T06:25:22.278Z,74.12
2023-03-19T06:27:49.293Z,73.40
2023-03-19T06:30:16.846Z,74.72
2023-03-19T06:32:43.874Z,72.95
2023-03-19T06:35:11.055Z,71.72
2023-03-19T06:37:38.025Z,73.58
2023-03-19T06:40:05.792Z,71.30
2023-03-19T06:42:32.785Z,68.38
2023-03-19T06:44:59.833Z,64.47
2023-03-19T06:47:27.267Z,63.74
2023-03-19T06:49:54.270Z,63.29
2023-03-19T06:52:21.379Z,63.04
2023-03-19T06:54:48.296Z,62.07
2023-03-19T06:57:15.254Z,61.44
2023-03-19T06:59:42.458Z,59.49
2023-03-19T07:02:12.398Z,57.61
2023-03-19T07:04:39.385Z,56.45
2023-03-19T07:07:06.718Z,56.94
2023-03-19T07:09:33.699Z,54.08
2023-03-19T07:12:00.641Z,54.64
2023-03-19T07:14:27.564Z,55.58
2023-03-19T07:16:54.655Z,54.46
2023-03-19T07:19:21.720Z,52.64
2023-03-19T07:21:48.851Z,53.18
2023-03-19T07:24:16.158Z,50.48
2023-03-19T07:26:44.227Z,50.57
2023-03-19T07:29:11.530Z,49.65
2023-03-19T07:31:38.563Z,50.16
2023-03-19T07:34:06.297Z,49.40
2023-03-19T07:36:33.249Z,47.95
2023-03-19T07:39:00.257Z,48.17
2023-03-19T07:41:27.612Z,48.86
2023-03-19T07:43:54.560Z,47.65
2023-03-19T07:46:21.775Z,47.28
2023-03-19T07:48:48.729Z,47.28
2023-03-19T07:51:15.746Z,46.79
2023-03-19T07:53:42.710Z,45.99
2023-03-19T07:56:10.110Z,46.66
2023-03-19T07:58:37.056Z,46.37
2023-03-19T08:01:04.483Z,45.28
2023-03-19T08:03:31.438Z,44.81
2023-03-19T08:05:58.360Z,44.99
2023-03-19T08:08:25.436Z,45.61
2023-03-19T08:10:54.634Z,45.13
2023-03-19T08:13:21.517Z,45.88
2023-03-19T08:15:49.862Z,45.25
2023-03-19T08:18:17.073Z,44.08
2023-03-19T08:20:45.812Z,44.15
2023-03-19T08:23:13.929Z,42.86
2023-03-19T08:25:40.894Z,43.72
2023-03-19T08:28:10.014Z,42.62
2023-03-19T08:30:38.453Z,42.38
2023-03-19T08:33:06.261Z,41.72
2023-03-19T08:35:33.244Z,41.58
2023-03-19T08:38:00.388Z,41.87
2023-03-19T08:40:27.398Z,40.86
2023-03-19T08:42:55.877Z,41.36
2023-03-19T08:45:23.979Z,42.91
2023-03-19T08:47:51.522Z,41.71
2023-03-19T08:50:19.159Z,42.79
2023-03-19T08:52:46.927Z,41.05
2023-03-19T08:55:14.070Z,41.07
2023-03-19T08:57:41.152Z,41.72
2023-03-19T09:00:08.885Z,41.88
2023-03-19T09:02:36.273Z,40.49
2023-03-19T09:05:03.241Z,41.17
2023-03-19T09:07:30.186Z,41.77
2023-03-19T09:09:57.150Z,42.14
2023-03-19T09:12:24.090Z,41.15
2023-03-19T09:14:52.037Z,41.19
2023-03-19T09:17:19.109Z,41.18
2023-03-19T09:19:46.114Z,41.02
2023-03-19T09:22:13.110Z,40.13
2023-03-19T09:24:40.741Z,39.99
2023-03-19T09:27:08.026Z,40.38
2023-03-19T09:29:35.121Z,41.39
2023-03-19T09:32:02.201Z,38.72
2023-03-19T09:34:29.162Z,39.92
2023-03-19T09:36:56.130Z,39.78
2023-03-19T09:39:23.113Z,39.63
2023-03-19T09:42:27.735Z,39.54
2023-03-19T09:44:54.880Z,38.72
2023-03-19T09:47:34.606Z,39.50
2023-03-19T09:50:06.999Z,39.89
2023-03-19T09:52:46.215Z,40.26
2023-03-19T09:55:18.809Z,38.77
2023-03-19T09:57:46.580Z,37.91
2023-03-19T10:00:26.098Z,39.36
2023-03-19T10:03:16.443Z,39.41
2023-03-19T10:06:17.207Z,39.83
2023-03-19T10:08:46.869Z,37.13
2023-03-19T10:11:50.681Z,39.24
2023-03-19T10:14:54.236Z,39.10
2023-03-19T10:17:27.775Z,38.75
2023-03-19T10:20:06.599Z,36.80
2023-03-19T10:22:46.579Z,38.98
2023-03-19T10:25:23.308Z,37.96
2023-03-19T10:27:57.221Z,38.14
2023-03-19T10:30:24.358Z,37.27
2023-03-19T10:33:15.765Z,38.31
2023-03-19T10:35:49.256Z,36.52
2023-03-19T10:38:27.401Z,38.08
2023-03-19T10:41:22.436Z,37.62
2023-03-19T10:44:00.698Z,38.32
2023-03-19T10:46:27.794Z,38.21
2023-03-19T10:48:54.718Z,37.26
2023-03-19T10:51:27.291Z,35.80
2023-03-19T10:53:58.034Z,35.52
2023-03-19T10:56:34.335Z,38.19
2023-03-19T10:59:04.836Z,38.75
2023-03-19T11:01:39.344Z,36.79
2023-03-19T11:04:23.429Z,38.70
2023-03-19T11:06:52.181Z,37.95
2023-03-19T11:09:37.242Z,37.23
2023-03-19T11:12:20.045Z,38.10
2023-03-19T11:14:50.242Z,36.81
2023-03-19T11:17:49.708Z,38.88
2023-03-19T11:20:24.299Z,38.38
2023-03-19T11:22:53.353Z,37.29
2023-03-19T11:25:53.648Z,37.24
2023-03-19T11:28:26.444Z,36.16
2023-03-19T11:31:01.101Z,37.18
2023-03-19T11:33:38.438Z,35.63
2023-03-19T11:36:15.439Z,35.82
2023-03-19T11:39:25.919Z,35.82
2023-03-19T11:42:17.842Z,35.77
2023-03-19T11:45:09.106Z,37.38
2023-03-19T11:47:54.745Z,38.15
2023-03-19T11:50:29.971Z,37.33
2023-03-19T11:53:08.721Z,37.28
2023-03-19T11:55:40.010Z,36.96
2023-03-19T11:58:48.344Z,36.89
2023-03-19T12:01:50.969Z,36.47
2023-03-19T12:04:27.773Z,35.81
2023-03-19T12:07:09.246Z,35.59
2023-03-19T12:10:30.515Z,35.18
2023-03-19T12:13:09.218Z,36.15
2023-03-19T12:15:36.755Z,35.73
2023-03-19T12:18:17.349Z,35.64
2023-03-19T12:20:59.799Z,37.48
2023-03-19T12:23:39.383Z,35.76
2023-03-19T12:26:17.825Z,35.33
2023-03-19T12:28:53.250Z,36.49
2023-03-19T12:31:46.195Z,36.96
2023-03-19T12:34:36.283Z,37.67
2023-03-19T12:37:19.116Z,35.25
2023-03-19T12:40:15.877Z,35.36
2023-03-19T12:42:43.808Z,36.41
2023-03-19T12:45:37.615Z,36.40
2023-03-19T12:48:12.577Z,38.15
2023-03-19T12:50:44.323Z,35.11
2023-03-19T12:53:46.544Z,35.01
2023-03-19T12:56:32.909Z,34.17
2023-03-19T12:59:12.145Z,33.84
2023-03-19T13:01:47.930Z,34.62
2023-03-19T13:04:26.852Z,37.63
2023-03-19T13:07:03.326Z,36.41
2023-03-19T13:09:48.805Z,36.65
2023-03-19T13:12:31.100Z,34.24
2023-03-19T13:15:22.032Z,33.50
2023-03-19T13:18:25.620Z,33.73
2023-03-19T13:21:01.593Z,34.28
2023-03-19T13:23:34.339Z,34.35
2023-03-19T13:26:05.013Z,34.64
2023-03-19T13:28:35.422Z,35.43
2023-03-19T13:31:24.473Z,35.83
2023-03-19T13:34:02.923Z,35.03
2023-03-19T13:36:31.599Z,36.13
2023-03-19T13:39:00.711Z,35.00
2023-03-19T13:41:33.482Z,36.71
2023-03-19T13:44:21.192Z,35.68
2023-03-19T13:46:48.969Z,35.53
2023-03-19T13:50:16.138Z,36.95
2023-03-19T13:52:45.979Z,35.69
2023-03-19T13:55:44.847Z,35.69
2023-03-19T13:58:37.993Z,35.90
2023-03-19T14:01:07.211Z,35.67
2023-03-19T14:03:36.980Z,35.23
2023-03-19T14:06:04.775Z,34.82
2023-03-19T14:08:47.676Z,35.42
2023-03-19T14:11:25.116Z,35.25
2023-03-19T14:13:54.324Z,35.44
2023-03-19T14:16:26.826Z,34.29
2023-03-19T14:18:58.394Z,35.21
2023-03-19T14:21:47.251Z,34.51
2023-03-19T14:24:55.812Z,34.91
2023-03-19T14:27:26.590Z,37.33
2023-03-19T14:29:55.866Z,37.26
2023-03-19T14:32:32.310Z,37.57
2023-03-19T14:35:01.380Z,37.86
2023-03-19T14:37:37.331Z,38.63
2023-03-19T14:40:10.158Z,37.01
2023-03-19T14:42:53.680Z,37.15
2023-03-19T14:45:35.188Z,37.89
2023-03-19T14:48:23.586Z,36.51
2023-03-19T14:51:13.515Z,37.11
2023-03-19T14:54:01.613Z,36.66
2023-03-19T14:56:36.479Z,34.99
2023-03-19T14:59:07.904Z,36.48
2023-03-19T15:01:43.920Z,35.73
2023-03-19T15:04:15.846Z,35.86
2023-03-19T15:06:57.109Z,34.78
2023-03-19T15:09:31.590Z,36.35
2023-03-19T15:12:17.325Z,35.67
2023-03-19T15:15:09.958Z,36.07
2023-03-19T15:17:40.177Z,36.36
2023-03-19T15:20:16.716Z,36.95
2023-03-19T15:22:44.681Z,37.35
2023-03-19T15:25:15.123Z,36.79
2023-03-19T15:27:42.940Z,37.06
2023-03-19T15:30:33.777Z,36.57
2023-03-19T15:33:38.734Z,36.86
2023-03-19T15:36:07.385Z,37.77
2023-03-19T15:38:45.655Z,37.29
2023-03-19T15:41:13.816Z,37.08
2023-03-19T15:43:42.790Z,37.29
2023-03-19T15:46:17.082Z,37.51
2023-03-19T15:49:03.081Z,39.51
2023-03-19T15:51:30.982Z,39.03
2023-03-19T15:53:59.571Z,39.62
2023-03-19T15:56:27.759Z,38.54
2023-03-19T15:58:58.262Z,40.57
2023-03-19T16:01:26.610Z,39.33
2023-03-19T16:03:58.964Z,39.56
2023-03-19T16:06:32.762Z,39.62
2023-03-19T16:09:14.780Z,41.25
2023-03-19T16:11:43.649Z,41.77
2023-03-19T16:14:35.556Z,41.98
2023-03-19T16:17:11.100Z,41.92
2023-03-19T16:19:48.267Z,42.03
2023-03-19T16:22:18.462Z,43.88
2023-03-19T16:24:47.291Z,43.96
2023-03-19T16:27:17.605Z,43.90
2023-03-19T16:29:58.523Z,46.43
2023-03-19T16:32:27.790Z,44.25
2023-03-19T16:35:04.164Z,45.00
2023-03-19T16:37:40.531Z,44.94
2023-03-19T16:40:13.545Z,46.11
2023-03-19T16:42:42.560Z,47.93
2023-03-19T16:45:15.920Z,48.70
2023-03-19T16:47:44.022Z,49.77
2023-03-19T16:50:12.020Z,48.73
2023-03-19T16:52:40.632Z,48.68
2023-03-19T16:55:36.945Z,48.84
2023-03-19T16:58:04.119Z,50.87
2023-03-19T17:00:32.727Z,49.57
2023-03-19T17:03:00.807Z,50.42
2023-03-19T17:05:29.561Z,53.71
2023-03-19T17:07:57.172Z,53.41
2023-03-19T17:10:27.265Z,53.14
2023-03-19T17:12:55.846Z,54.44
2023-03-19T17:15:40.756Z,53.74
2023-03-19T17:18:19.431Z,53.14
2023-03-19T17:20:56.211Z,54.69
2023-03-19T17:23:27.332Z,55.62
2023-03-19T17:25:55.149Z,57.77
2023-03-19T17:28:22.981Z,55.89
2023-03-19T17:30:50.252Z,54.58
2023-03-19T17:33:29.100Z,55.98
2023-03-19T17:35:58.086Z,55.64
2023-03-19T17:38:34.627Z,58.22
2023-03-19T17:41:23.292Z,58.13
2023-03-19T17:43:50.548Z,59.20
2023-03-19T17:46:26.616Z,60.14
2023-03-19T17:48:54.703Z,60.77
2023-03-19T17:52:08.108Z,59.67
2023-03-19T17:54:35.015Z,61.24
2023-03-19T17:57:02.013Z,60.70
2023-03-19T17:59:30.063Z,62.78
2023-03-19T18:01:57.563Z,63.87
2023-03-19T18:04:26.211Z,60.07
2023-03-19T18:06:55.720Z,60.87
2023-03-19T18:09:33.059Z,62.18
2023-03-19T18:12:00.478Z,61.34
2023-03-19T18:14:28.809Z,62.20
2023-03-19T18:16:55.980Z,61.25
2023-03-19T18:19:32.240Z,60.43
2023-03-19T18:21:59.346Z,63.51
2023-03-19T18:24:26.277Z,64.85
2023-03-19T18:26:53.494Z,65.64
2023-03-19T18:29:20.843Z,64.74
2023-03-19T18:31:50.691Z,66.48
2023-03-19T18:34:18.448Z,63.88
2023-03-19T18:36:45.801Z,64.42
2023-03-19T18:39:14.596Z,64.88
2023-03-19T18:41:42.453Z,64.58
2023-03-19T18:44:10.380Z,62.81
2023-03-19T18:46:39.092Z,63.62
2023-03-19T18:49:12.005Z,63.72
2023-03-19T18:51:45.523Z,65.27
2023-03-19T18:54:21.980Z,64.52
2023-03-19T18:56:50.547Z,67.61
2023-03-19T18:59:26.248Z,65.96
2023-03-19T19:02:15.480Z,65.60
2023-03-19T19:04:42.462Z,67.65
2023-03-19T19:07:13.816Z,65.35
2023-03-19T19:09:40.926Z,66.00
2023-03-19T19:12:09.334Z,68.49
2023-03-19T19:14:36.727Z,67.46
2023-03-19T19:17:03.801Z,67.47
2023-03-19T19:19:30.756Z,68.66
2023-03-19T19:21:57.668Z,69.62
2023-03-19T19:24:24.864Z,70.53
2023-03-19T19:26:54.403Z,69.91
2023-03-19T19:29:28.511Z,68.10
2023-03-19T19:31:56.115Z,67.60
2023-03-19T19:34:23.950Z,67.23
2023-03-19T19:36:51.379Z,66.90
2023-03-19T19:39:19.210Z,66.46
2023-03-19T19:41:46.868Z,67.56
2023-03-19T19:44:22.453Z,67.20
2023-03-19T19:46:53.458Z,67.38
2023-03-19T19:49:21.916Z,66.42
2023-03-19T19:51:48.887Z,67.29
2023-03-19T19:54:16.330Z,67.44
2023-03-19T19:56:43.566Z,65.48
2023-03-19T19:59:15.738Z,66.58
2023-03-19T20:01:43.458Z,65.01
2023-03-19T20:04:15.064Z,63.06
2023-03-19T20:06:43.301Z,61.89
2023-03-19T20:09:10.256Z,64.10
2023-03-19T20:11:37.587Z,67.53
2023-03-19T20:14:04.475Z,65.17
2023-03-19T20:16:31.459Z,68.73
2023-03-19T20:18:58.446Z,68.38
2023-03-19T20:21:25.944Z,68.92
2023-03-19T20:23:55.611Z,66.87
2023-03-19T20:26:24.350Z,66.76
2023-03-19T20:28:52.708Z,66.35
2023-03-19T20:31:29.846Z,65.53
2023-03-19T20:33:58.014Z,66.00
2023-03-19T20:36:25.246Z,64.89
2023-03-19T20:38:52.753Z,64.48
2023-03-19T20:41:23.098Z,63.26
2023-03-19T20:43:51.511Z,63.31
2023-03-19T20:46:21.058Z,62.34
2023-03-19T20:48:48.729Z,62.47
2023-03-19T20:51:23.339Z,62.12
2023-03-19T20:53:51.723Z,61.64
2023-03-19T20:56:22.225Z,63.67
2023-03-19T20:58:49.353Z,65.19
2023-03-19T21:01:18.038Z,64.12
2023-03-19T21:03:44.998Z,63.86
2023-03-19T21:06:21.429Z,64.43
2023-03-19T21:09:00.506Z,64.20
2023-03-19T21:11:45.935Z,63.53
2023-03-19T21:14:18.726Z,64.21
2023-03-19T21:16:45.761Z,63.86
2023-03-19T21:19:12.933Z,63.86
2023-03-19T21:21:40.060Z,65.00
2023-03-19T21:24:19.629Z,63.79
2023-03-19T21:26:49.184Z,63.46
2023-03-19T21:29:26.168Z,63.43
2023-03-19T21:31:54.951Z,62.79
2023-03-19T21:34:21.975Z,62.95
2023-03-19T21:36:48.980Z,63.04
2023-03-19T21:39:16.206Z,63.34
2023-03-19T21:41:43.221Z,63.63
2023-03-19T21:44:15.624Z,64.39
2023-03-19T21:46:46.806Z,63.42
2023-03-19T21:49:14.590Z,63.66
2023-03-19T21:51:43.419Z,64.22
2023-03-19T21:54:11.581Z,64.31
2023-03-19T21:56:44.929Z,64.20
2023-03-19T21:59:16.420Z,63.89
2023-03-19T22:01:43.415Z,64.73
2023-03-19T22:04:10.672Z,63.78
2023-03-19T22:06:37.888Z,63.90
2023-03-19T22:09:04.855Z,63.97
2023-03-19T22:11:37.186Z,63.18
2023-03-19T22:14:30.431Z,63.06
2023-03-19T22:16:57.706Z,63.03
2023-03-19T22:19:26.095Z,63.60
2023-03-19T22:21:53.624Z,63.51
2023-03-19T22:24:20.635Z,63.90
2023-03-19T22:26:58.042Z,63.68
2023-03-19T22:29:25.895Z,63.68
2023-03-19T22:31:56.045Z,63.79
2023-03-19T22:34:26.354Z,63.65
2023-03-19T22:36:53.869Z,63.65
2023-03-19T22:39:21.049Z,65.20
2023-03-19T22:41:49.124Z,65.76
2023-03-19T22:44:42.362Z,64.78
2023-03-19T22:47:19.340Z,64.65
2023-03-19T22:49:46.399Z,64.71
2023-03-19T22:52:13.407Z,65.35
2023-03-19T22:54:41.335Z,65.88
2023-03-19T22:57:15.100Z,67.01
2023-03-19T22:59:44.940Z,66.35
2023-03-19T23:02:15.122Z,65.63
2023-03-19T23:04:42.169Z,65.68
2023-03-19T23:07:12.755Z,65.71
2023-03-19T23:09:39.962Z,65.19
2023-03-19T23:14:34.632Z,64.79
2023-03-19T23:17:06.870Z,65.01
2023-03-19T23:19:35.903Z,64.82
2023-03-19T23:22:05.220Z,65.09
2023-03-19T23:24:32.767Z,65.58
2023-03-19T23:27:01.481Z,64.99
2023-03-19T23:29:35.668Z,65.21
2023-03-19T23:32:03.578Z,64.72
2023-03-19T23:34:30.607Z,64.75
2023-03-19T23:36:58.211Z,64.90
2023-03-19T23:39:25.823Z,65.02
2023-03-19T23:41:56.886Z,65.17
2023-03-19T23:44:23.899Z,66.61
2023-03-19T23:46:52.208Z,65.86
2023-03-19T23:49:30.934Z,65.54
2023-03-19T23:51:58.174Z,66.59
2023-03-19T23:54:34.698Z,66.51
2023-03-19T23:57:06.930Z,66.90
2023-03-19T23:59:37.407Z,67.05
